sensor_id;sensor_type;location;lat;lon;timestamp;P1;durP1;ratioP1;P2;durP2;ratioP2
74894;SDS011;63447;49.446;8.666;2022-12-29T00:02:15;5.60;;;2.40;;
74894;SDS011;63447;49.446;8.666;2022-12-29T00:04:41;4.40;;;1.60;;
74894;SDS011;63447;49.446;8.666;2022-12-29T00:07:08;4.75;;;2.03;;
74894;SDS011;63447;49.446;8.666;2022-12-29T00:09:36;5.03;;;2.00;;
74894;SDS011;63447;49.446;8.666;2022-12-29T00:12:04;5.78;;;2.58;;
74894;SDS011;63447;49.446;8.666;2022-12-29T00:14:32;5.22;;;1.85;;
74894;SDS011;63447;49.446;8.666;2022-12-29T00:17:16;4.65;;;1.98;;
74894;SDS011;63447;49.446;8.666;2022-12-29T00:19:44;5.03;;;2.10;;
74894;SDS011;63447;49.446;8.666;2022-12-29T00:25:12;4.50;;;2.08;;
74894;SDS011;63447;49.446;8.666;2022-12-29T00:27:58;4.50;;;1.95;;
74894;SDS011;63447;49.446;8.666;2022-12-29T00:30:45;5.03;;;1.90;;
74894;SDS011;63447;49.446;8.666;2022-12-29T00:33:32;4.40;;;1.88;;
74894;SDS011;63447;49.446;8.666;2022-12-29T00:36:28;4.68;;;2.00;;
74894;SDS011;63447;49.446;8.666;2022-12-29T00:39:09;4.88;;;1.92;;
74894;SDS011;63447;49.446;8.666;2022-12-29T00:41:59;4.63;;;2.00;;
74894;SDS011;63447;49.446;8.666;2022-12-29T00:44:47;4.78;;;2.03;;
74894;SDS011;63447;49.446;8.666;2022-12-29T00:47:17;5.82;;;2.38;;
74894;SDS011;63447;49.446;8.666;2022-12-29T00:49:44;5.53;;;2.03;;
74894;SDS011;63447;49.446;8.666;2022-12-29T00:52:11;5.07;;;2.20;;
74894;SDS011;63447;49.446;8.666;2022-12-29T00:54:40;4.97;;;1.90;;
74894;SDS011;63447;49.446;8.666;2022-12-29T00:57:07;5.25;;;2.17;;
74894;SDS011;63447;49.446;8.666;2022-12-29T00:59:39;4.90;;;1.98;;
74894;SDS011;63447;49.446;8.666;2022-12-29T01:02:06;6.25;;;1.80;;
74894;SDS011;63447;49.446;8.666;2022-12-29T01:04:34;5.03;;;1.88;;
74894;SDS011;63447;49.446;8.666;2022-12-29T01:06:59;4.55;;;1.83;;
74894;SDS011;63447;49.446;8.666;2022-12-29T01:09:25;4.40;;;1.52;;
74894;SDS011;63447;49.446;8.666;2022-12-29T01:12:09;5.03;;;2.13;;
74894;SDS011;63447;49.446;8.666;2022-12-29T01:14:35;4.22;;;1.85;;
74894;SDS011;63447;49.446;8.666;2022-12-29T01:17:02;5.38;;;1.90;;
74894;SDS011;63447;49.446;8.666;2022-12-29T01:19:30;4.40;;;2.03;;
74894;SDS011;63447;49.446;8.666;2022-12-29T01:21:58;5.68;;;1.92;;
74894;SDS011;63447;49.446;8.666;2022-12-29T01:24:23;5.22;;;1.90;;
74894;SDS011;63447;49.446;8.666;2022-12-29T01:26:51;5.20;;;1.92;;
74894;SDS011;63447;49.446;8.666;2022-12-29T01:29:19;5.97;;;2.13;;
74894;SDS011;63447;49.446;8.666;2022-12-29T01:31:46;6.22;;;1.60;;
74894;SDS011;63447;49.446;8.666;2022-12-29T01:34:12;5.13;;;1.85;;
74894;SDS011;63447;49.446;8.666;2022-12-29T01:36:38;5.65;;;2.03;;
74894;SDS011;63447;49.446;8.666;2022-12-29T01:39:03;6.30;;;1.80;;
74894;SDS011;63447;49.446;8.666;2022-12-29T01:41:31;6.03;;;1.95;;
74894;SDS011;63447;49.446;8.666;2022-12-29T01:43:57;4.07;;;1.90;;
74894;SDS011;63447;49.446;8.666;2022-12-29T01:46:36;5.47;;;1.67;;
74894;SDS011;63447;49.446;8.666;2022-12-29T01:51:32;3.83;;;1.57;;
74894;SDS011;63447;49.446;8.666;2022-12-29T01:54:22;5.38;;;1.63;;
74894;SDS011;63447;49.446;8.666;2022-12-29T01:56:51;4.22;;;1.52;;
74894;SDS011;63447;49.446;8.666;2022-12-29T01:59:22;4.60;;;1.67;;
74894;SDS011;63447;49.446;8.666;2022-12-29T02:01:54;5.00;;;1.58;;
74894;SDS011;63447;49.446;8.666;2022-12-29T02:04:20;4.30;;;1.67;;
74894;SDS011;63447;49.446;8.666;2022-12-29T02:06:53;3.72;;;1.23;;
74894;SDS011;63447;49.446;8.666;2022-12-29T02:09:23;6.72;;;1.50;;
74894;SDS011;63447;49.446;8.666;2022-12-29T02:11:50;5.18;;;1.50;;
74894;SDS011;63447;49.446;8.666;2022-12-29T02:14:19;3.30;;;1.35;;
74894;SDS011;63447;49.446;8.666;2022-12-29T02:33:43;5.18;;;1.77;;
74894;SDS011;63447;49.446;8.666;2022-12-29T02:36:41;3.55;;;1.48;;
74894;SDS011;63447;49.446;8.666;2022-12-29T02:42:13;3.70;;;1.67;;
74894;SDS011;63447;49.446;8.666;2022-12-29T02:44:55;3.47;;;1.30;;
74894;SDS011;63447;49.446;8.666;2022-12-29T02:50:08;3.78;;;1.55;;
74894;SDS011;63447;49.446;8.666;2022-12-29T02:52:47;3.30;;;1.30;;
74894;SDS011;63447;49.446;8.666;2022-12-29T02:55:17;5.75;;;1.60;;
74894;SDS011;63447;49.446;8.666;2022-12-29T02:57:48;4.15;;;1.40;;
74894;SDS011;63447;49.446;8.666;2022-12-29T03:00:31;4.70;;;1.75;;
74894;SDS011;63447;49.446;8.666;2022-12-29T03:05:43;5.40;;;1.55;;
74894;SDS011;63447;49.446;8.666;2022-12-29T03:08:27;3.60;;;1.30;;
74894;SDS011;63447;49.446;8.666;2022-12-29T03:11:10;3.83;;;1.40;;
74894;SDS011;63447;49.446;8.666;2022-12-29T03:14:02;4.65;;;1.20;;
74894;SDS011;63447;49.446;8.666;2022-12-29T03:16:50;3.30;;;1.42;;
74894;SDS011;63447;49.446;8.666;2022-12-29T03:19:25;4.15;;;1.50;;
74894;SDS011;63447;49.446;8.666;2022-12-29T03:21:56;3.90;;;1.30;;
74894;SDS011;63447;49.446;8.666;2022-12-29T03:24:45;3.70;;;1.33;;
74894;SDS011;63447;49.446;8.666;2022-12-29T03:27:22;3.70;;;1.38;;
74894;SDS011;63447;49.446;8.666;2022-12-29T03:29:55;4.28;;;1.48;;
74894;SDS011;63447;49.446;8.666;2022-12-29T03:32:28;5.47;;;1.85;;
74894;SDS011;63447;49.446;8.666;2022-12-29T03:34:58;3.75;;;1.20;;
74894;SDS011;63447;49.446;8.666;2022-12-29T03:37:31;5.75;;;1.67;;
74894;SDS011;63447;49.446;8.666;2022-12-29T03:40:03;3.97;;;1.30;;
74894;SDS011;63447;49.446;8.666;2022-12-29T03:42:29;4.55;;;1.63;;
74894;SDS011;63447;49.446;8.666;2022-12-29T03:45:00;4.55;;;1.40;;
74894;SDS011;63447;49.446;8.666;2022-12-29T03:47:28;7.03;;;2.08;;
74894;SDS011;63447;49.446;8.666;2022-12-29T03:49:57;3.95;;;1.42;;
74894;SDS011;63447;49.446;8.666;2022-12-29T03:52:25;5.60;;;1.80;;
74894;SDS011;63447;49.446;8.666;2022-12-29T03:54:53;7.68;;;1.83;;
74894;SDS011;63447;49.446;8.666;2022-12-29T03:57:18;4.17;;;1.40;;
74894;SDS011;63447;49.446;8.666;2022-12-29T03:59:46;4.33;;;1.43;;
74894;SDS011;63447;49.446;8.666;2022-12-29T04:02:11;4.30;;;1.40;;
74894;SDS011;63447;49.446;8.666;2022-12-29T04:04:36;5.33;;;2.17;;
74894;SDS011;63447;49.446;8.666;2022-12-29T04:07:04;4.47;;;1.60;;
74894;SDS011;63447;49.446;8.666;2022-12-29T04:09:29;3.50;;;1.50;;
74894;SDS011;63447;49.446;8.666;2022-12-29T04:11:57;5.80;;;1.40;;
74894;SDS011;63447;49.446;8.666;2022-12-29T04:14:22;4.20;;;1.70;;
74894;SDS011;63447;49.446;8.666;2022-12-29T04:16:48;3.50;;;1.43;;
74894;SDS011;63447;49.446;8.666;2022-12-29T04:19:16;4.10;;;1.45;;
74894;SDS011;63447;49.446;8.666;2022-12-29T04:21:46;4.35;;;1.10;;
74894;SDS011;63447;49.446;8.666;2022-12-29T04:24:14;5.43;;;1.63;;
74894;SDS011;63447;49.446;8.666;2022-12-29T04:26:39;6.40;;;1.50;;
74894;SDS011;63447;49.446;8.666;2022-12-29T04:29:05;4.03;;;1.48;;
74894;SDS011;63447;49.446;8.666;2022-12-29T04:31:30;5.28;;;1.40;;
74894;SDS011;63447;49.446;8.666;2022-12-29T04:33:56;4.65;;;1.60;;
74894;SDS011;63447;49.446;8.666;2022-12-29T04:36:24;3.67;;;1.55;;
74894;SDS011;63447;49.446;8.666;2022-12-29T04:38:52;4.05;;;1.40;;
74894;SDS011;63447;49.446;8.666;2022-12-29T04:41:19;3.53;;;1.20;;
74894;SDS011;63447;49.446;8.666;2022-12-29T04:43:47;3.42;;;1.50;;
74894;SDS011;63447;49.446;8.666;2022-12-29T04:46:15;5.13;;;1.70;;
74894;SDS011;63447;49.446;8.666;2022-12-29T04:48:45;4.78;;;1.40;;
74894;SDS011;63447;49.446;8.666;2022-12-29T04:51:12;3.78;;;1.40;;
74894;SDS011;63447;49.446;8.666;2022-12-29T04:53:38;3.40;;;1.20;;
74894;SDS011;63447;49.446;8.666;2022-12-29T04:56:08;3.92;;;1.42;;
74894;SDS011;63447;49.446;8.666;2022-12-29T04:58:36;5.05;;;1.67;;
74894;SDS011;63447;49.446;8.666;2022-12-29T05:01:03;4.05;;;1.50;;
74894;SDS011;63447;49.446;8.666;2022-12-29T05:03:31;4.63;;;1.55;;
74894;SDS011;63447;49.446;8.666;2022-12-29T05:05:57;4.30;;;1.47;;
74894;SDS011;63447;49.446;8.666;2022-12-29T05:08:22;3.72;;;1.35;;
74894;SDS011;63447;49.446;8.666;2022-12-29T05:10:49;3.67;;;1.40;;
74894;SDS011;63447;49.446;8.666;2022-12-29T05:13:18;6.00;;;1.30;;
74894;SDS011;63447;49.446;8.666;2022-12-29T05:15:50;6.07;;;1.65;;
74894;SDS011;63447;49.446;8.666;2022-12-29T05:18:17;4.07;;;1.50;;
74894;SDS011;63447;49.446;8.666;2022-12-29T05:20:46;6.72;;;1.55;;
74894;SDS011;63447;49.446;8.666;2022-12-29T05:23:12;4.00;;;1.10;;
74894;SDS011;63447;49.446;8.666;2022-12-29T05:25:43;3.70;;;1.30;;
74894;SDS011;63447;49.446;8.666;2022-12-29T05:28:10;3.92;;;1.27;;
74894;SDS011;63447;49.446;8.666;2022-12-29T05:30:35;3.93;;;0.97;;
74894;SDS011;63447;49.446;8.666;2022-12-29T05:33:02;4.00;;;1.30;;
74894;SDS011;63447;49.446;8.666;2022-12-29T05:35:32;5.10;;;1.50;;
74894;SDS011;63447;49.446;8.666;2022-12-29T05:38:00;3.97;;;1.55;;
74894;SDS011;63447;49.446;8.666;2022-12-29T05:40:25;4.00;;;1.50;;
74894;SDS011;63447;49.446;8.666;2022-12-29T05:42:51;4.20;;;1.53;;
74894;SDS011;63447;49.446;8.666;2022-12-29T05:45:21;4.20;;;1.50;;
74894;SDS011;63447;49.446;8.666;2022-12-29T05:47:46;3.55;;;1.20;;
74894;SDS011;63447;49.446;8.666;2022-12-29T05:50:13;3.90;;;1.30;;
74894;SDS011;63447;49.446;8.666;2022-12-29T05:52:41;4.05;;;1.50;;
74894;SDS011;63447;49.446;8.666;2022-12-29T05:55:07;3.87;;;1.43;;
74894;SDS011;63447;49.446;8.666;2022-12-29T05:57:37;4.10;;;1.50;;
74894;SDS011;63447;49.446;8.666;2022-12-29T06:00:05;5.05;;;1.55;;
74894;SDS011;63447;49.446;8.666;2022-12-29T06:02:32;5.18;;;1.52;;
74894;SDS011;63447;49.446;8.666;2022-12-29T06:05:02;3.97;;;1.48;;
74894;SDS011;63447;49.446;8.666;2022-12-29T06:07:27;3.70;;;1.40;;
74894;SDS011;63447;49.446;8.666;2022-12-29T06:09:53;4.32;;;1.60;;
74894;SDS011;63447;49.446;8.666;2022-12-29T06:12:18;3.30;;;1.37;;
74894;SDS011;63447;49.446;8.666;2022-12-29T06:14:45;3.95;;;1.40;;
74894;SDS011;63447;49.446;8.666;2022-12-29T06:17:11;5.23;;;1.30;;
74894;SDS011;63447;49.446;8.666;2022-12-29T06:19:36;4.93;;;1.30;;
74894;SDS011;63447;49.446;8.666;2022-12-29T06:22:01;4.17;;;1.60;;
74894;SDS011;63447;49.446;8.666;2022-12-29T06:24:27;4.07;;;1.43;;
74894;SDS011;63447;49.446;8.666;2022-12-29T06:26:57;4.75;;;1.52;;
74894;SDS011;63447;49.446;8.666;2022-12-29T06:29:22;5.28;;;1.55;;
74894;SDS011;63447;49.446;8.666;2022-12-29T06:31:47;4.50;;;1.70;;
74894;SDS011;63447;49.446;8.666;2022-12-29T06:34:14;5.70;;;1.70;;
74894;SDS011;63447;49.446;8.666;2022-12-29T06:36:39;5.10;;;1.50;;
74894;SDS011;63447;49.446;8.666;2022-12-29T06:39:07;4.47;;;1.52;;
74894;SDS011;63447;49.446;8.666;2022-12-29T06:41:33;4.20;;;1.70;;
74894;SDS011;63447;49.446;8.666;2022-12-29T06:44:00;5.28;;;2.08;;
74894;SDS011;63447;49.446;8.666;2022-12-29T06:46:28;4.95;;;1.67;;
74894;SDS011;63447;49.446;8.666;2022-12-29T06:48:56;4.75;;;1.70;;
74894;SDS011;63447;49.446;8.666;2022-12-29T06:51:25;4.60;;;1.90;;
74894;SDS011;63447;49.446;8.666;2022-12-29T06:53:53;4.25;;;1.88;;
74894;SDS011;63447;49.446;8.666;2022-12-29T06:56:18;4.45;;;1.60;;
74894;SDS011;63447;49.446;8.666;2022-12-29T06:58:46;5.10;;;1.73;;
74894;SDS011;63447;49.446;8.666;2022-12-29T07:01:14;5.10;;;1.55;;
74894;SDS011;63447;49.446;8.666;2022-12-29T07:03:41;5.22;;;1.75;;
74894;SDS011;63447;49.446;8.666;2022-12-29T07:06:10;5.40;;;1.70;;
74894;SDS011;63447;49.446;8.666;2022-12-29T07:08:40;5.22;;;1.60;;
74894;SDS011;63447;49.446;8.666;2022-12-29T07:11:10;4.63;;;1.77;;
74894;SDS011;63447;49.446;8.666;2022-12-29T07:13:40;5.78;;;2.22;;
74894;SDS011;63447;49.446;8.666;2022-12-29T07:16:08;5.10;;;1.98;;
74894;SDS011;63447;49.446;8.666;2022-12-29T07:18:36;4.50;;;1.60;;
74894;SDS011;63447;49.446;8.666;2022-12-29T07:21:02;3.72;;;1.80;;
74894;SDS011;63447;49.446;8.666;2022-12-29T07:23:30;3.80;;;1.67;;
74894;SDS011;63447;49.446;8.666;2022-12-29T07:26:00;4.80;;;2.05;;
74894;SDS011;63447;49.446;8.666;2022-12-29T07:28:29;5.07;;;1.90;;
74894;SDS011;63447;49.446;8.666;2022-12-29T07:30:54;5.20;;;1.90;;
74894;SDS011;63447;49.446;8.666;2022-12-29T07:33:20;4.20;;;1.70;;
74894;SDS011;63447;49.446;8.666;2022-12-29T07:35:47;4.63;;;1.77;;
74894;SDS011;63447;49.446;8.666;2022-12-29T07:38:12;4.22;;;1.40;;
74894;SDS011;63447;49.446;8.666;2022-12-29T07:40:41;4.97;;;1.77;;
74894;SDS011;63447;49.446;8.666;2022-12-29T07:43:07;5.10;;;2.05;;
74894;SDS011;63447;49.446;8.666;2022-12-29T07:45:32;3.88;;;1.63;;
74894;SDS011;63447;49.446;8.666;2022-12-29T07:47:58;5.57;;;1.75;;
74894;SDS011;63447;49.446;8.666;2022-12-29T07:50:23;4.43;;;1.90;;
74894;SDS011;63447;49.446;8.666;2022-12-29T07:52:48;4.27;;;1.67;;
74894;SDS011;63447;49.446;8.666;2022-12-29T07:55:16;5.07;;;1.77;;
74894;SDS011;63447;49.446;8.666;2022-12-29T07:57:42;4.80;;;2.28;;
74894;SDS011;63447;49.446;8.666;2022-12-29T08:00:07;5.55;;;1.98;;
74894;SDS011;63447;49.446;8.666;2022-12-29T08:02:36;4.45;;;1.83;;
74894;SDS011;63447;49.446;8.666;2022-12-29T08:05:04;4.20;;;1.80;;
74894;SDS011;63447;49.446;8.666;2022-12-29T08:07:30;6.63;;;2.53;;
74894;SDS011;63447;49.446;8.666;2022-12-29T08:09:57;4.85;;;1.80;;
74894;SDS011;63447;49.446;8.666;2022-12-29T08:12:23;5.63;;;1.80;;
74894;SDS011;63447;49.446;8.666;2022-12-29T08:14:48;4.13;;;1.48;;
74894;SDS011;63447;49.446;8.666;2022-12-29T08:17:14;5.10;;;1.93;;
74894;SDS011;63447;49.446;8.666;2022-12-29T08:19:39;4.83;;;2.13;;
74894;SDS011;63447;49.446;8.666;2022-12-29T08:22:07;5.85;;;2.42;;
74894;SDS011;63447;49.446;8.666;2022-12-29T08:24:33;5.55;;;2.38;;
74894;SDS011;63447;49.446;8.666;2022-12-29T08:27:03;5.30;;;2.40;;
74894;SDS011;63447;49.446;8.666;2022-12-29T08:29:30;6.47;;;2.63;;
74894;SDS011;63447;49.446;8.666;2022-12-29T08:31:55;4.77;;;1.87;;
74894;SDS011;63447;49.446;8.666;2022-12-29T08:34:24;5.35;;;2.10;;
74894;SDS011;63447;49.446;8.666;2022-12-29T08:36:52;5.90;;;1.93;;
74894;SDS011;63447;49.446;8.666;2022-12-29T08:39:17;5.07;;;1.80;;
74894;SDS011;63447;49.446;8.666;2022-12-29T08:41:44;4.67;;;1.87;;
74894;SDS011;63447;49.446;8.666;2022-12-29T08:44:12;5.18;;;1.80;;
74894;SDS011;63447;49.446;8.666;2022-12-29T08:46:40;4.25;;;1.67;;
74894;SDS011;63447;49.446;8.666;2022-12-29T08:49:08;4.50;;;1.88;;
74894;SDS011;63447;49.446;8.666;2022-12-29T08:51:36;4.72;;;1.40;;
74894;SDS011;63447;49.446;8.666;2022-12-29T08:54:03;6.05;;;1.95;;
74894;SDS011;63447;49.446;8.666;2022-12-29T08:56:29;4.28;;;1.80;;
74894;SDS011;63447;49.446;8.666;2022-12-29T08:58:54;8.30;;;4.00;;
74894;SDS011;63447;49.446;8.666;2022-12-29T09:01:20;5.47;;;2.13;;
74894;SDS011;63447;49.446;8.666;2022-12-29T09:03:48;6.03;;;2.13;;
74894;SDS011;63447;49.446;8.666;2022-12-29T09:06:16;5.60;;;2.10;;
74894;SDS011;63447;49.446;8.666;2022-12-29T09:08:43;4.80;;;1.92;;
74894;SDS011;63447;49.446;8.666;2022-12-29T09:11:15;5.72;;;1.90;;
74894;SDS011;63447;49.446;8.666;2022-12-29T09:13:43;4.40;;;1.88;;
74894;SDS011;63447;49.446;8.666;2022-12-29T09:16:13;6.13;;;1.90;;
74894;SDS011;63447;49.446;8.666;2022-12-29T09:18:39;4.32;;;1.90;;
74894;SDS011;63447;49.446;8.666;2022-12-29T09:21:07;5.15;;;2.22;;
74894;SDS011;63447;49.446;8.666;2022-12-29T09:23:37;4.80;;;2.15;;
74894;SDS011;63447;49.446;8.666;2022-12-29T09:26:03;4.50;;;1.95;;
74894;SDS011;63447;49.446;8.666;2022-12-29T09:28:34;4.35;;;1.90;;
74894;SDS011;63447;49.446;8.666;2022-12-29T09:31:02;5.20;;;2.13;;
74894;SDS011;63447;49.446;8.666;2022-12-29T09:33:32;5.80;;;2.20;;
74894;SDS011;63447;49.446;8.666;2022-12-29T09:36:00;6.55;;;2.05;;
74894;SDS011;63447;49.446;8.666;2022-12-29T09:38:26;3.95;;;1.83;;
74894;SDS011;63447;49.446;8.666;2022-12-29T09:40:56;6.53;;;2.28;;
74894;SDS011;63447;49.446;8.666;2022-12-29T09:44:03;7.00;;;2.17;;
74894;SDS011;63447;49.446;8.666;2022-12-29T09:46:41;4.78;;;1.80;;
74894;SDS011;63447;49.446;8.666;2022-12-29T09:52:08;5.60;;;2.40;;
74894;SDS011;63447;49.446;8.666;2022-12-29T09:54:46;4.50;;;2.00;;
74894;SDS011;63447;49.446;8.666;2022-12-29T09:57:20;5.32;;;2.53;;
74894;SDS011;63447;49.446;8.666;2022-12-29T09:59:49;5.00;;;2.28;;
74894;SDS011;63447;49.446;8.666;2022-12-29T10:02:29;6.07;;;2.17;;
74894;SDS011;63447;49.446;8.666;2022-12-29T10:05:00;5.90;;;1.90;;
74894;SDS011;63447;49.446;8.666;2022-12-29T10:10:20;5.60;;;2.67;;
74894;SDS011;63447;49.446;8.666;2022-12-29T10:13:00;4.10;;;2.10;;
74894;SDS011;63447;49.446;8.666;2022-12-29T10:15:40;5.88;;;1.98;;
74894;SDS011;63447;49.446;8.666;2022-12-29T10:21:20;5.88;;;2.55;;
74894;SDS011;63447;49.446;8.666;2022-12-29T10:23:58;6.45;;;3.47;;
74894;SDS011;63447;49.446;8.666;2022-12-29T10:26:31;5.30;;;2.53;;
74894;SDS011;63447;49.446;8.666;2022-12-29T10:29:08;4.82;;;2.60;;
74894;SDS011;63447;49.446;8.666;2022-12-29T10:34:15;7.07;;;2.28;;
74894;SDS011;63447;49.446;8.666;2022-12-29T10:37:03;5.07;;;2.03;;
74894;SDS011;63447;49.446;8.666;2022-12-29T10:39:40;10.00;;;3.60;;
74894;SDS011;63447;49.446;8.666;2022-12-29T10:44:38;5.60;;;2.00;;
74894;SDS011;63447;49.446;8.666;2022-12-29T10:47:09;4.35;;;1.67;;
74894;SDS011;63447;49.446;8.666;2022-12-29T10:49:42;4.15;;;2.00;;
74894;SDS011;63447;49.446;8.666;2022-12-29T10:52:12;5.18;;;1.98;;
74894;SDS011;63447;49.446;8.666;2022-12-29T10:54:49;5.28;;;1.98;;
74894;SDS011;63447;49.446;8.666;2022-12-29T10:57:34;4.43;;;1.80;;
74894;SDS011;63447;49.446;8.666;2022-12-29T11:00:12;3.75;;;1.60;;
74894;SDS011;63447;49.446;8.666;2022-12-29T11:02:48;5.70;;;2.35;;
74894;SDS011;63447;49.446;8.666;2022-12-29T11:07:50;5.43;;;2.13;;
74894;SDS011;63447;49.446;8.666;2022-12-29T11:12:58;7.25;;;1.85;;
74894;SDS011;63447;49.446;8.666;2022-12-29T11:15:56;4.72;;;1.63;;
74894;SDS011;63447;49.446;8.666;2022-12-29T11:20:52;3.87;;;1.57;;
74894;SDS011;63447;49.446;8.666;2022-12-29T11:23:30;3.95;;;1.60;;
74894;SDS011;63447;49.446;8.666;2022-12-29T11:26:05;3.55;;;1.63;;
74894;SDS011;63447;49.446;8.666;2022-12-29T11:28:43;3.97;;;1.55;;
74894;SDS011;63447;49.446;8.666;2022-12-29T11:31:21;4.47;;;1.65;;
74894;SDS011;63447;49.446;8.666;2022-12-29T11:33:46;4.47;;;1.77;;
74894;SDS011;63447;49.446;8.666;2022-12-29T11:36:20;4.75;;;1.85;;
74894;SDS011;63447;49.446;8.666;2022-12-29T11:38:53;6.03;;;1.63;;
74894;SDS011;63447;49.446;8.666;2022-12-29T11:41:24;5.05;;;1.77;;
74894;SDS011;63447;49.446;8.666;2022-12-29T11:43:53;3.75;;;1.67;;
74894;SDS011;63447;49.446;8.666;2022-12-29T11:46:25;4.30;;;1.70;;
74894;SDS011;63447;49.446;8.666;2022-12-29T11:48:53;3.40;;;1.48;;
74894;SDS011;63447;49.446;8.666;2022-12-29T11:51:24;3.90;;;1.52;;
74894;SDS011;63447;49.446;8.666;2022-12-29T11:53:56;4.45;;;1.50;;
74894;SDS011;63447;49.446;8.666;2022-12-29T11:56:39;4.95;;;1.65;;
74894;SDS011;63447;49.446;8.666;2022-12-29T12:02:03;4.15;;;1.55;;
74894;SDS011;63447;49.446;8.666;2022-12-29T12:04:43;4.40;;;1.77;;
74894;SDS011;63447;49.446;8.666;2022-12-29T12:07:30;4.75;;;1.75;;
74894;SDS011;63447;49.446;8.666;2022-12-29T12:10:13;5.28;;;1.55;;
74894;SDS011;63447;49.446;8.666;2022-12-29T12:20:54;4.10;;;1.17;;
74894;SDS011;63447;49.446;8.666;2022-12-29T12:23:36;4.30;;;1.30;;
74894;SDS011;63447;49.446;8.666;2022-12-29T12:28:43;4.07;;;1.40;;
74894;SDS011;63447;49.446;8.666;2022-12-29T12:34:04;2.90;;;0.90;;
74894;SDS011;63447;49.446;8.666;2022-12-29T12:36:49;2.58;;;0.80;;
74894;SDS011;63447;49.446;8.666;2022-12-29T12:39:31;3.15;;;1.10;;
74894;SDS011;63447;49.446;8.666;2022-12-29T12:48:00;4.45;;;1.38;;
74894;SDS011;63447;49.446;8.666;2022-12-29T12:59:38;4.32;;;1.50;;
74894;SDS011;63447;49.446;8.666;2022-12-29T13:15:55;3.13;;;1.00;;
74894;SDS011;63447;49.446;8.666;2022-12-29T13:18:46;5.40;;;1.35;;
74894;SDS011;63447;49.446;8.666;2022-12-29T13:24:17;4.43;;;1.10;;
74894;SDS011;63447;49.446;8.666;2022-12-29T13:26:47;4.38;;;1.20;;
74894;SDS011;63447;49.446;8.666;2022-12-29T13:34:48;3.67;;;1.10;;
74894;SDS011;63447;49.446;8.666;2022-12-29T13:37:27;4.47;;;1.38;;
74894;SDS011;63447;49.446;8.666;2022-12-29T13:39:59;4.18;;;1.30;;
74894;SDS011;63447;49.446;8.666;2022-12-29T13:42:28;5.40;;;1.45;;
74894;SDS011;63447;49.446;8.666;2022-12-29T13:44:57;5.50;;;2.08;;
74894;SDS011;63447;49.446;8.666;2022-12-29T13:49:56;4.90;;;1.83;;
74894;SDS011;63447;49.446;8.666;2022-12-29T13:57:54;4.55;;;1.40;;
74894;SDS011;63447;49.446;8.666;2022-12-29T14:00:26;3.83;;;1.10;;
74894;SDS011;63447;49.446;8.666;2022-12-29T14:03:05;2.85;;;0.85;;
74894;SDS011;63447;49.446;8.666;2022-12-29T14:05:33;3.35;;;1.10;;
74894;SDS011;63447;49.446;8.666;2022-12-29T14:08:00;3.05;;;0.90;;
74894;SDS011;63447;49.446;8.666;2022-12-29T14:10:37;3.72;;;0.95;;
74894;SDS011;63447;49.446;8.666;2022-12-29T14:13:12;3.97;;;0.90;;
74894;SDS011;63447;49.446;8.666;2022-12-29T14:15:42;3.78;;;0.82;;
74894;SDS011;63447;49.446;8.666;2022-12-29T14:23:44;3.25;;;0.82;;
74894;SDS011;63447;49.446;8.666;2022-12-29T14:28:44;2.55;;;0.70;;
74894;SDS011;63447;49.446;8.666;2022-12-29T14:33:39;3.28;;;0.98;;
74894;SDS011;63447;49.446;8.666;2022-12-29T14:36:20;2.03;;;0.60;;
74894;SDS011;63447;49.446;8.666;2022-12-29T14:38:45;2.78;;;0.73;;
74894;SDS011;63447;49.446;8.666;2022-12-29T14:41:18;1.98;;;0.70;;
74894;SDS011;63447;49.446;8.666;2022-12-29T14:43:53;3.00;;;0.70;;
74894;SDS011;63447;49.446;8.666;2022-12-29T14:46:21;2.75;;;0.60;;
74894;SDS011;63447;49.446;8.666;2022-12-29T14:48:47;3.28;;;0.70;;
74894;SDS011;63447;49.446;8.666;2022-12-29T14:51:40;4.13;;;0.80;;
74894;SDS011;63447;49.446;8.666;2022-12-29T14:57:31;3.83;;;1.00;;
74894;SDS011;63447;49.446;8.666;2022-12-29T15:02:48;4.18;;;1.10;;
74894;SDS011;63447;49.446;8.666;2022-12-29T15:05:41;4.07;;;1.30;;
74894;SDS011;63447;49.446;8.666;2022-12-29T15:08:12;5.28;;;1.10;;
74894;SDS011;63447;49.446;8.666;2022-12-29T15:10:51;3.92;;;1.55;;
74894;SDS011;63447;49.446;8.666;2022-12-29T15:13:21;5.22;;;1.75;;
74894;SDS011;63447;49.446;8.666;2022-12-29T15:15:50;6.03;;;1.15;;
74894;SDS011;63447;49.446;8.666;2022-12-29T15:18:28;4.47;;;1.17;;
74894;SDS011;63447;49.446;8.666;2022-12-29T15:20:58;3.28;;;0.95;;
74894;SDS011;63447;49.446;8.666;2022-12-29T15:23:29;4.28;;;1.38;;
74894;SDS011;63447;49.446;8.666;2022-12-29T15:25:59;5.15;;;1.63;;
74894;SDS011;63447;49.446;8.666;2022-12-29T15:28:36;3.50;;;1.30;;
74894;SDS011;63447;49.446;8.666;2022-12-29T15:31:06;4.28;;;1.60;;
74894;SDS011;63447;49.446;8.666;2022-12-29T15:34:02;4.53;;;1.67;;
74894;SDS011;63447;49.446;8.666;2022-12-29T15:36:37;4.10;;;1.40;;
74894;SDS011;63447;49.446;8.666;2022-12-29T15:41:56;6.32;;;2.47;;
74894;SDS011;63447;49.446;8.666;2022-12-29T15:44:29;4.47;;;2.00;;
74894;SDS011;63447;49.446;8.666;2022-12-29T15:47:11;5.25;;;2.13;;
74894;SDS011;63447;49.446;8.666;2022-12-29T15:49:43;5.70;;;2.50;;
74894;SDS011;63447;49.446;8.666;2022-12-29T15:52:13;7.80;;;3.92;;
74894;SDS011;63447;49.446;8.666;2022-12-29T15:54:43;7.50;;;3.10;;
74894;SDS011;63447;49.446;8.666;2022-12-29T15:57:22;5.63;;;2.58;;
74894;SDS011;63447;49.446;8.666;2022-12-29T15:59:49;6.50;;;2.10;;
74894;SDS011;63447;49.446;8.666;2022-12-29T16:02:19;5.57;;;1.65;;
74894;SDS011;63447;49.446;8.666;2022-12-29T16:04:47;4.78;;;1.70;;
74894;SDS011;63447;49.446;8.666;2022-12-29T16:07:26;4.43;;;1.35;;
74894;SDS011;63447;49.446;8.666;2022-12-29T16:09:56;3.83;;;1.40;;
74894;SDS011;63447;49.446;8.666;2022-12-29T16:12:26;4.22;;;1.40;;
74894;SDS011;63447;49.446;8.666;2022-12-29T16:14:56;4.22;;;1.50;;
74894;SDS011;63447;49.446;8.666;2022-12-29T16:17:25;3.38;;;1.25;;
74894;SDS011;63447;49.446;8.666;2022-12-29T16:22:34;4.78;;;1.73;;
74894;SDS011;63447;49.446;8.666;2022-12-29T16:28:01;10.48;;;4.95;;
74894;SDS011;63447;49.446;8.666;2022-12-29T16:30:39;4.85;;;1.60;;
74894;SDS011;63447;49.446;8.666;2022-12-29T16:33:05;6.00;;;1.50;;
74894;SDS011;63447;49.446;8.666;2022-12-29T16:35:44;4.70;;;1.50;;
74894;SDS011;63447;49.446;8.666;2022-12-29T16:40:53;6.00;;;1.75;;
74894;SDS011;63447;49.446;8.666;2022-12-29T16:43:33;4.47;;;1.60;;
74894;SDS011;63447;49.446;8.666;2022-12-29T16:46:28;5.30;;;1.92;;
74894;SDS011;63447;49.446;8.666;2022-12-29T16:48:57;4.57;;;1.60;;
74894;SDS011;63447;49.446;8.666;2022-12-29T16:51:35;7.93;;;4.25;;
74894;SDS011;63447;49.446;8.666;2022-12-29T16:54:02;5.95;;;2.28;;
74894;SDS011;63447;49.446;8.666;2022-12-29T16:56:30;5.97;;;2.10;;
74894;SDS011;63447;49.446;8.666;2022-12-29T16:59:07;4.70;;;1.50;;
74894;SDS011;63447;49.446;8.666;2022-12-29T17:01:48;5.65;;;1.90;;
74894;SDS011;63447;49.446;8.666;2022-12-29T17:04:16;4.38;;;1.80;;
74894;SDS011;63447;49.446;8.666;2022-12-29T17:06:44;5.20;;;2.05;;
74894;SDS011;63447;49.446;8.666;2022-12-29T17:09:22;5.37;;;2.33;;
74894;SDS011;63447;49.446;8.666;2022-12-29T17:11:54;4.82;;;2.00;;
74894;SDS011;63447;49.446;8.666;2022-12-29T17:17:05;6.43;;;2.65;;
74894;SDS011;63447;49.446;8.666;2022-12-29T17:19:37;6.55;;;2.80;;
74894;SDS011;63447;49.446;8.666;2022-12-29T17:24:36;7.00;;;3.17;;
74894;SDS011;63447;49.446;8.666;2022-12-29T17:27:02;7.68;;;2.80;;
74894;SDS011;63447;49.446;8.666;2022-12-29T17:29:35;7.03;;;3.00;;
74894;SDS011;63447;49.446;8.666;2022-12-29T17:32:03;5.75;;;2.28;;
74894;SDS011;63447;49.446;8.666;2022-12-29T17:34:31;7.05;;;3.20;;
74894;SDS011;63447;49.446;8.666;2022-12-29T17:36:57;10.60;;;4.10;;
74894;SDS011;63447;49.446;8.666;2022-12-29T17:39:26;7.53;;;3.33;;